Terminal Aerodrome Forecast
Issued by NWS

Home | Current Version | Previous Version | Graphics & Text | Print | Product List | Glossary On
Versions: 1 2 3 4 5 6 7 8 9 10 11 12 13 14 15 16 17 18 19 20 21
000
FTUS43 KGRB 311700
TAFMTW
TAF
KMTW 311730Z 3118/0118 33008G13KT P6SM BKN028
     FM312300 01007KT P6SM BKN035
     FM010400 03014G24KT 4SM -SN BKN025
     FM010900 03016G26KT 1 1/2SM -SN BKN015
     FM011600 03016G26KT 3SM -SN BKN025=

USA.gov is the U.S. government's official web portal to all federal, state and local government web resources and services.